sensor_id;sensor_type;location;lat;lon;timestamp;pressure;altitude;pressure_sealevel;temperature;humidity
27294;BME280;14785;52.556;13.430;2023-04-19T00:00:38;101936.09;;;9.85;100.00
27294;BME280;14785;52.556;13.430;2023-04-19T00:03:05;101932.72;;;10.05;100.00
27294;BME280;14785;52.556;13.430;2023-04-19T00:05:31;101929.34;;;9.92;100.00
27294;BME280;14785;52.556;13.430;2023-04-19T00:07:58;101932.50;;;9.86;100.00
27294;BME280;14785;52.556;13.430;2023-04-19T00:10:24;101926.47;;;9.95;100.00
27294;BME280;14785;52.556;13.430;2023-04-19T00:12:50;101927.91;;;9.99;100.00
27294;BME280;14785;52.556;13.430;2023-04-19T00:15:19;101925.28;;;10.10;100.00
27294;BME280;14785;52.556;13.430;2023-04-19T00:17:44;101911.84;;;10.12;100.00
27294;BME280;14785;52.556;13.430;2023-04-19T00:20:10;101923.31;;;10.01;100.00
27294;BME280;14785;52.556;13.430;2023-04-19T00:22:37;101914.84;;;9.96;100.00
27294;BME280;14785;52.556;13.430;2023-04-19T00:25:03;101918.94;;;10.00;100.00
27294;BME280;14785;52.556;13.430;2023-04-19T00:27:28;101909.78;;;9.60;100.00
27294;BME280;14785;52.556;13.430;2023-04-19T00:29:54;101914.38;;;9.69;100.00
27294;BME280;14785;52.556;13.430;2023-04-19T00:32:19;101913.16;;;9.62;100.00
27294;BME280;14785;52.556;13.430;2023-04-19T00:34:45;101905.91;;;9.53;100.00
27294;BME280;14785;52.556;13.430;2023-04-19T00:37:10;101908.34;;;9.56;100.00
27294;BME280;14785;52.556;13.430;2023-04-19T00:39:36;101917.28;;;9.77;100.00
27294;BME280;14785;52.556;13.430;2023-04-19T00:42:01;101901.81;;;9.71;100.00
27294;BME280;14785;52.556;13.430;2023-04-19T00:44:27;101923.66;;;9.86;100.00
27294;BME280;14785;52.556;13.430;2023-04-19T00:46:53;101915.09;;;9.71;100.00
27294;BME280;14785;52.556;13.430;2023-04-19T00:49:21;101917.53;;;9.74;100.00
27294;BME280;14785;52.556;13.430;2023-04-19T00:51:48;101911.69;;;9.58;100.00
27294;BME280;14785;52.556;13.430;2023-04-19T00:54:14;101917.88;;;9.81;100.00
27294;BME280;14785;52.556;13.430;2023-04-19T00:56:40;101907.56;;;9.43;100.00
27294;BME280;14785;52.556;13.430;2023-04-19T00:59:06;101911.22;;;9.53;100.00
27294;BME280;14785;52.556;13.430;2023-04-19T01:01:32;101909.41;;;9.53;100.00
27294;BME280;14785;52.556;13.430;2023-04-19T01:03:59;101903.97;;;9.44;100.00
27294;BME280;14785;52.556;13.430;2023-04-19T01:06:26;101910.81;;;9.24;100.00
27294;BME280;14785;52.556;13.430;2023-04-19T01:08:52;101903.22;;;9.31;100.00
27294;BME280;14785;52.556;13.430;2023-04-19T01:11:18;101909.28;;;9.44;100.00
27294;BME280;14785;52.556;13.430;2023-04-19T01:13:43;101909.28;;;9.44;100.00
27294;BME280;14785;52.556;13.430;2023-04-19T01:16:09;101917.53;;;9.06;100.00
27294;BME280;14785;52.556;13.430;2023-04-19T01:18:35;101904.75;;;9.22;100.00
27294;BME280;14785;52.556;13.430;2023-04-19T01:21:02;101906.41;;;9.01;100.00
27294;BME280;14785;52.556;13.430;2023-04-19T01:23:27;101909.41;;;8.97;100.00
27294;BME280;14785;52.556;13.430;2023-04-19T01:25:53;101905.22;;;9.05;100.00
27294;BME280;14785;52.556;13.430;2023-04-19T01:28:18;101901.78;;;9.38;100.00
27294;BME280;14785;52.556;13.430;2023-04-19T01:30:43;101905.56;;;9.01;100.00
27294;BME280;14785;52.556;13.430;2023-04-19T01:33:09;101898.47;;;9.12;100.00
27294;BME280;14785;52.556;13.430;2023-04-19T01:35:34;101898.63;;;9.22;100.00
27294;BME280;14785;52.556;13.430;2023-04-19T01:38:00;101895.00;;;9.23;100.00
27294;BME280;14785;52.556;13.430;2023-04-19T01:40:26;101902.84;;;9.24;100.00
27294;BME280;14785;52.556;13.430;2023-04-19T01:42:51;101888.75;;;9.35;100.00
27294;BME280;14785;52.556;13.430;2023-04-19T01:45:17;101897.91;;;9.31;100.00
27294;BME280;14785;52.556;13.430;2023-04-19T01:47:42;101895.03;;;9.45;100.00
27294;BME280;14785;52.556;13.430;2023-04-19T01:50:08;101884.38;;;9.34;100.00
27294;BME280;14785;52.556;13.430;2023-04-19T01:52:34;101882.72;;;9.22;100.00
27294;BME280;14785;52.556;13.430;2023-04-19T01:54:59;101894.97;;;9.01;100.00
27294;BME280;14785;52.556;13.430;2023-04-19T01:57:25;101895.00;;;9.23;100.00
27294;BME280;14785;52.556;13.430;2023-04-19T01:59:53;101881.69;;;9.12;100.00
27294;BME280;14785;52.556;13.430;2023-04-19T02:02:19;101885.94;;;9.14;100.00
27294;BME280;14785;52.556;13.430;2023-04-19T02:04:44;101885.28;;;8.89;100.00
27294;BME280;14785;52.556;13.430;2023-04-19T02:07:09;101882.75;;;8.64;100.00
27294;BME280;14785;52.556;13.430;2023-04-19T02:09:36;101888.22;;;8.73;100.00
27294;BME280;14785;52.556;13.430;2023-04-19T02:12:03;101887.66;;;8.81;100.00
27294;BME280;14785;52.556;13.430;2023-04-19T02:14:28;101883.91;;;8.83;100.00
27294;BME280;14785;52.556;13.430;2023-04-19T02:16:54;101872.25;;;8.97;100.00
27294;BME280;14785;52.556;13.430;2023-04-19T02:19:19;101874.25;;;8.82;100.00
27294;BME280;14785;52.556;13.430;2023-04-19T02:21:45;101872.41;;;8.72;100.00
27294;BME280;14785;52.556;13.430;2023-04-19T02:24:11;101869.13;;;8.92;100.00
27294;BME280;14785;52.556;13.430;2023-04-19T02:26:36;101873.56;;;8.91;100.00
27294;BME280;14785;52.556;13.430;2023-04-19T02:29:01;101868.38;;;8.90;100.00
27294;BME280;14785;52.556;13.430;2023-04-19T02:31:27;101861.84;;;8.83;100.00
27294;BME280;14785;52.556;13.430;2023-04-19T02:33:52;101868.09;;;8.71;100.00
27294;BME280;14785;52.556;13.430;2023-04-19T02:36:18;101863.59;;;8.95;100.00
27294;BME280;14785;52.556;13.430;2023-04-19T02:38:43;101860.47;;;9.12;100.00
27294;BME280;14785;52.556;13.430;2023-04-19T02:41:09;101858.41;;;8.70;100.00
27294;BME280;14785;52.556;13.430;2023-04-19T02:43:34;101854.53;;;8.63;100.00
27294;BME280;14785;52.556;13.430;2023-04-19T02:46:00;101849.28;;;8.74;100.00
27294;BME280;14785;52.556;13.430;2023-04-19T02:48:25;101854.34;;;8.77;100.00
27294;BME280;14785;52.556;13.430;2023-04-19T02:50:51;101849.25;;;8.63;100.00
27294;BME280;14785;52.556;13.430;2023-04-19T02:53:16;101843.59;;;9.13;100.00
27294;BME280;14785;52.556;13.430;2023-04-19T02:55:42;101842.13;;;8.98;100.00
27294;BME280;14785;52.556;13.430;2023-04-19T02:58:07;101837.06;;;9.17;100.00
27294;BME280;14785;52.556;13.430;2023-04-19T03:00:32;101831.22;;;8.90;100.00
27294;BME280;14785;52.556;13.430;2023-04-19T03:02:58;101836.56;;;9.01;100.00
27294;BME280;14785;52.556;13.430;2023-04-19T03:05:23;101830.09;;;9.16;100.00
27294;BME280;14785;52.556;13.430;2023-04-19T03:07:48;101828.75;;;9.21;100.00
27294;BME280;14785;52.556;13.430;2023-04-19T03:10:14;101823.66;;;8.96;100.00
27294;BME280;14785;52.556;13.430;2023-04-19T03:12:40;101829.09;;;8.95;100.00
27294;BME280;14785;52.556;13.430;2023-04-19T03:15:06;101826.66;;;8.92;100.00
27294;BME280;14785;52.556;13.430;2023-04-19T03:17:32;101820.84;;;8.87;100.00
27294;BME280;14785;52.556;13.430;2023-04-19T03:19:57;101819.47;;;8.70;100.00
27294;BME280;14785;52.556;13.430;2023-04-19T03:22:23;101819.19;;;8.28;100.00
27294;BME280;14785;52.556;13.430;2023-04-19T03:24:48;101817.09;;;8.44;100.00
27294;BME280;14785;52.556;13.430;2023-04-19T03:27:13;101815.84;;;8.60;100.00
27294;BME280;14785;52.556;13.430;2023-04-19T03:29:39;101813.06;;;8.27;100.00
27294;BME280;14785;52.556;13.430;2023-04-19T03:32:06;101808.97;;;8.11;100.00
27294;BME280;14785;52.556;13.430;2023-04-19T03:34:31;101804.75;;;8.32;100.00
27294;BME280;14785;52.556;13.430;2023-04-19T03:36:57;101800.97;;;8.47;100.00
27294;BME280;14785;52.556;13.430;2023-04-19T03:39:23;101797.63;;;8.56;100.00
27294;BME280;14785;52.556;13.430;2023-04-19T03:41:48;101794.16;;;8.66;100.00
27294;BME280;14785;52.556;13.430;2023-04-19T03:44:14;101797.06;;;8.40;100.00
27294;BME280;14785;52.556;13.430;2023-04-19T03:46:39;101792.44;;;8.31;100.00
27294;BME280;14785;52.556;13.430;2023-04-19T03:49:04;101798.88;;;8.16;100.00
27294;BME280;14785;52.556;13.430;2023-04-19T03:51:30;101788.88;;;8.19;100.00
27294;BME280;14785;52.556;13.430;2023-04-19T03:53:55;101798.06;;;7.79;100.00
27294;BME280;14785;52.556;13.430;2023-04-19T03:56:22;101792.09;;;7.64;100.00
27294;BME280;14785;52.556;13.430;2023-04-19T03:58:51;101786.34;;;7.70;100.00
27294;BME280;14785;52.556;13.430;2023-04-19T04:01:20;101784.34;;;7.98;100.00
27294;BME280;14785;52.556;13.430;2023-04-19T04:03:45;101776.63;;;7.58;100.00
27294;BME280;14785;52.556;13.430;2023-04-19T04:06:11;101782.75;;;7.95;100.00
27294;BME280;14785;52.556;13.430;2023-04-19T04:08:36;101784.88;;;8.14;100.00
27294;BME280;14785;52.556;13.430;2023-04-19T04:11:02;101775.88;;;7.93;100.00
27294;BME280;14785;52.556;13.430;2023-04-19T04:13:27;101783.91;;;7.67;100.00
27294;BME280;14785;52.556;13.430;2023-04-19T04:15:53;101776.63;;;7.95;100.00
27294;BME280;14785;52.556;13.430;2023-04-19T04:18:18;101773.38;;;7.78;100.00
27294;BME280;14785;52.556;13.430;2023-04-19T04:20:44;101767.72;;;7.59;100.00
27294;BME280;14785;52.556;13.430;2023-04-19T04:23:09;101772.91;;;7.61;100.00
27294;BME280;14785;52.556;13.430;2023-04-19T04:25:35;101776.72;;;8.17;100.00
27294;BME280;14785;52.556;13.430;2023-04-19T04:28:03;101771.25;;;7.83;100.00
27294;BME280;14785;52.556;13.430;2023-04-19T04:30:28;101767.63;;;7.84;100.00
27294;BME280;14785;52.556;13.430;2023-04-19T04:32:54;101776.63;;;7.58;100.00
27294;BME280;14785;52.556;13.430;2023-04-19T04:35:22;101767.50;;;7.62;100.00
27294;BME280;14785;52.556;13.430;2023-04-19T04:37:48;101769.25;;;7.51;100.00
27294;BME280;14785;52.556;13.430;2023-04-19T04:40:13;101769.38;;;7.73;100.00
27294;BME280;14785;52.556;13.430;2023-04-19T04:42:39;101759.53;;;7.99;100.00
27294;BME280;14785;52.556;13.430;2023-04-19T04:45:05;101760.16;;;8.26;100.00
27294;BME280;14785;52.556;13.430;2023-04-19T04:47:32;101768.72;;;7.82;100.00
27294;BME280;14785;52.556;13.430;2023-04-19T04:49:58;101764.84;;;7.62;100.00
27294;BME280;14785;52.556;13.430;2023-04-19T04:52:25;101757.88;;;7.85;100.00
27294;BME280;14785;52.556;13.430;2023-04-19T04:54:50;101764.94;;;7.73;100.00
27294;BME280;14785;52.556;13.430;2023-04-19T04:57:15;101758.78;;;7.97;100.00
27294;BME280;14785;52.556;13.430;2023-04-19T04:59:41;101756.34;;;7.94;100.00
27294;BME280;14785;52.556;13.430;2023-04-19T05:02:06;101756.47;;;7.92;100.00
27294;BME280;14785;52.556;13.430;2023-04-19T05:04:32;101761.78;;;8.16;100.00
27294;BME280;14785;52.556;13.430;2023-04-19T05:06:57;101756.81;;;8.11;100.00
27294;BME280;14785;52.556;13.430;2023-04-19T05:09:22;101752.56;;;8.32;100.00
27294;BME280;14785;52.556;13.430;2023-04-19T05:11:48;101754.06;;;8.36;100.00
27294;BME280;14785;52.556;13.430;2023-04-19T05:14:13;101752.22;;;8.26;100.00
27294;BME280;14785;52.556;13.430;2023-04-19T05:16:41;101753.25;;;8.23;100.00
27294;BME280;14785;52.556;13.430;2023-04-19T05:19:10;101746.47;;;8.43;100.00
27294;BME280;14785;52.556;13.430;2023-04-19T05:21:35;101751.28;;;7.91;100.00
27294;BME280;14785;52.556;13.430;2023-04-19T05:24:01;101745.53;;;7.97;100.00
27294;BME280;14785;52.556;13.430;2023-04-19T05:26:26;101755.63;;;8.39;100.00
27294;BME280;14785;52.556;13.430;2023-04-19T05:28:51;101742.03;;;8.20;100.00
27294;BME280;14785;52.556;13.430;2023-04-19T05:31:17;101751.41;;;8.13;100.00
27294;BME280;14785;52.556;13.430;2023-04-19T05:33:43;101729.34;;;8.36;100.00
27294;BME280;14785;52.556;13.430;2023-04-19T05:36:08;101734.88;;;8.33;100.00
27294;BME280;14785;52.556;13.430;2023-04-19T05:38:33;101735.69;;;8.22;100.00
27294;BME280;14785;52.556;13.430;2023-04-19T05:40:59;101733.09;;;8.33;100.00
27294;BME280;14785;52.556;13.430;2023-04-19T05:43:25;101731.66;;;8.17;100.00
27294;BME280;14785;52.556;13.430;2023-04-19T05:45:50;101731.53;;;8.42;100.00
27294;BME280;14785;52.556;13.430;2023-04-19T05:48:16;101724.91;;;8.47;100.00
27294;BME280;14785;52.556;13.430;2023-04-19T05:50:41;101731.06;;;8.48;100.00
27294;BME280;14785;52.556;13.430;2023-04-19T05:53:07;101733.22;;;8.43;100.00
27294;BME280;14785;52.556;13.430;2023-04-19T05:55:32;101736.88;;;8.64;100.00
27294;BME280;14785;52.556;13.430;2023-04-19T05:57:57;101725.03;;;8.46;100.00
27294;BME280;14785;52.556;13.430;2023-04-19T06:00:23;101727.09;;;8.19;100.00
27294;BME280;14785;52.556;13.430;2023-04-19T06:02:48;101725.94;;;8.34;100.00
27294;BME280;14785;52.556;13.430;2023-04-19T06:05:14;101726.97;;;8.55;100.00
27294;BME280;14785;52.556;13.430;2023-04-19T06:07:39;101733.75;;;8.70;100.00
27294;BME280;14785;52.556;13.430;2023-04-19T06:10:05;101736.84;;;8.42;100.00
27294;BME280;14785;52.556;13.430;2023-04-19T06:12:31;101729.63;;;8.44;100.00
27294;BME280;14785;52.556;13.430;2023-04-19T06:14:56;101721.38;;;8.36;100.00
27294;BME280;14785;52.556;13.430;2023-04-19T06:17:22;101729.66;;;8.66;100.00
27294;BME280;14785;52.556;13.430;2023-04-19T06:19:52;101729.66;;;8.66;100.00
27294;BME280;14785;52.556;13.430;2023-04-19T06:22:18;101712.84;;;8.43;100.00
27294;BME280;14785;52.556;13.430;2023-04-19T06:24:45;101722.41;;;8.57;100.00
27294;BME280;14785;52.556;13.430;2023-04-19T06:27:11;101716.66;;;8.74;100.00
27294;BME280;14785;52.556;13.430;2023-04-19T06:29:36;101718.78;;;8.58;100.00
27294;BME280;14785;52.556;13.430;2023-04-19T06:32:02;101716.28;;;8.89;100.00
27294;BME280;14785;52.556;13.430;2023-04-19T06:34:29;101718.09;;;9.00;100.00
27294;BME280;14785;52.556;13.430;2023-04-19T06:36:54;101710.38;;;8.97;100.00
27294;BME280;14785;52.556;13.430;2023-04-19T06:39:19;101707.84;;;9.06;100.00
27294;BME280;14785;52.556;13.430;2023-04-19T06:41:45;101712.53;;;9.47;100.00
27294;BME280;14785;52.556;13.430;2023-04-19T06:44:10;101709.88;;;9.36;100.00
27294;BME280;14785;52.556;13.430;2023-04-19T06:46:38;101711.34;;;9.18;100.00
27294;BME280;14785;52.556;13.430;2023-04-19T06:49:04;101706.97;;;9.39;100.00
27294;BME280;14785;52.556;13.430;2023-04-19T06:51:29;101702.53;;;9.28;100.00
27294;BME280;14785;52.556;13.430;2023-04-19T06:53:55;101697.38;;;9.16;100.00
27294;BME280;14785;52.556;13.430;2023-04-19T06:56:40;101703.56;;;9.48;100.00
27294;BME280;14785;52.556;13.430;2023-04-19T06:59:06;101690.09;;;9.71;100.00
27294;BME280;14785;52.556;13.430;2023-04-19T07:01:31;101688.06;;;9.64;100.00
27294;BME280;14785;52.556;13.430;2023-04-19T07:03:57;101676.03;;;9.60;100.00
27294;BME280;14785;52.556;13.430;2023-04-19T07:06:22;101675.69;;;9.85;100.00
27294;BME280;14785;52.556;13.430;2023-04-19T07:08:49;101675.63;;;9.76;100.00
27294;BME280;14785;52.556;13.430;2023-04-19T07:11:14;101680.97;;;9.96;100.00
27294;BME280;14785;52.556;13.430;2023-04-19T07:13:40;101674.25;;;9.81;100.00
27294;BME280;14785;52.556;13.430;2023-04-19T07:16:05;101673.91;;;10.06;100.00
27294;BME280;14785;52.556;13.430;2023-04-19T07:18:32;101670.19;;;10.29;100.00
27294;BME280;14785;52.556;13.430;2023-04-19T07:20:57;101668.56;;;10.17;100.00
27294;BME280;14785;52.556;13.430;2023-04-19T07:23:22;101665.13;;;10.26;100.00
27294;BME280;14785;52.556;13.430;2023-04-19T07:25:48;101660.34;;;10.20;100.00
27294;BME280;14785;52.556;13.430;2023-04-19T07:28:13;101656.63;;;10.32;100.00
27294;BME280;14785;52.556;13.430;2023-04-19T07:30:40;101667.06;;;10.45;100.00
27294;BME280;14785;52.556;13.430;2023-04-19T07:33:05;101658.00;;;10.47;100.00
27294;BME280;14785;52.556;13.430;2023-04-19T07:35:33;101647.69;;;10.63;100.00
27294;BME280;14785;52.556;13.430;2023-04-19T07:37:58;101652.75;;;10.66;100.00
27294;BME280;14785;52.556;13.430;2023-04-19T07:40:24;101647.22;;;10.28;100.00
27294;BME280;14785;52.556;13.430;2023-04-19T07:42:49;101643.69;;;10.48;100.00
27294;BME280;14785;52.556;13.430;2023-04-19T07:45:16;101642.28;;;10.44;100.00
27294;BME280;14785;52.556;13.430;2023-04-19T07:47:41;101643.19;;;10.54;100.00
27294;BME280;14785;52.556;13.430;2023-04-19T07:50:07;101639.66;;;10.74;100.00
27294;BME280;14785;52.556;13.430;2023-04-19T07:52:33;101630.69;;;10.75;100.00
27294;BME280;14785;52.556;13.430;2023-04-19T07:54:58;101634.00;;;10.68;100.00
27294;BME280;14785;52.556;13.430;2023-04-19T07:57:24;101626.06;;;10.77;100.00
27294;BME280;14785;52.556;13.430;2023-04-19T07:59:49;101632.97;;;10.89;100.00
27294;BME280;14785;52.556;13.430;2023-04-19T08:02:14;101639.16;;;10.99;100.00
27294;BME280;14785;52.556;13.430;2023-04-19T08:04:41;101621.25;;;11.01;100.00
27294;BME280;14785;52.556;13.430;2023-04-19T08:07:06;101627.03;;;11.16;100.00
27294;BME280;14785;52.556;13.430;2023-04-19T08:09:33;101622.16;;;11.30;100.00
27294;BME280;14785;52.556;13.430;2023-04-19T08:11:59;101630.84;;;11.32;100.00
27294;BME280;14785;52.556;13.430;2023-04-19T08:14:25;101605.75;;;11.25;100.00
27294;BME280;14785;52.556;13.430;2023-04-19T08:16:51;101609.81;;;11.48;100.00
27294;BME280;14785;52.556;13.430;2023-04-19T08:19:16;101600.56;;;11.33;100.00
27294;BME280;14785;52.556;13.430;2023-04-19T08:21:41;101608.44;;;11.44;100.00
27294;BME280;14785;52.556;13.430;2023-04-19T08:24:07;101610.00;;;11.56;100.00
27294;BME280;14785;52.556;13.430;2023-04-19T08:26:32;101596.34;;;11.40;100.00
27294;BME280;14785;52.556;13.430;2023-04-19T08:28:58;101599.72;;;11.42;100.00
27294;BME280;14785;52.556;13.430;2023-04-19T08:31:23;101604.50;;;11.48;100.00
27294;BME280;14785;52.556;13.430;2023-04-19T08:33:49;101611.94;;;11.54;100.00
27294;BME280;14785;52.556;13.430;2023-04-19T08:36:14;101605.91;;;11.52;100.00
27294;BME280;14785;52.556;13.430;2023-04-19T08:38:40;101612.59;;;11.37;100.00
27294;BME280;14785;52.556;13.430;2023-04-19T08:41:06;101589.97;;;11.72;100.00
27294;BME280;14785;52.556;13.430;2023-04-19T08:43:34;101597.41;;;11.78;100.00
27294;BME280;14785;52.556;13.430;2023-04-19T08:46:01;101600.63;;;11.72;100.00
27294;BME280;14785;52.556;13.430;2023-04-19T08:48:28;101600.19;;;12.05;100.00
27294;BME280;14785;52.556;13.430;2023-04-19T08:50:55;101598.88;;;12.18;100.00
27294;BME280;14785;52.556;13.430;2023-04-19T08:53:22;101597.31;;;12.62;100.00
27294;BME280;14785;52.556;13.430;2023-04-19T08:55:48;101590.22;;;12.80;100.00
27294;BME280;14785;52.556;13.430;2023-04-19T08:58:14;101586.06;;;12.68;100.00
27294;BME280;14785;52.556;13.430;2023-04-19T09:00:39;101575.59;;;12.84;100.00
27294;BME280;14785;52.556;13.430;2023-04-19T09:03:06;101582.66;;;12.75;100.00
27294;BME280;14785;52.556;13.430;2023-04-19T09:05:32;101588.44;;;12.98;100.00
27294;BME280;14785;52.556;13.430;2023-04-19T09:08:20;101577.69;;;13.17;100.00
27294;BME280;14785;52.556;13.430;2023-04-19T09:10:53;101577.53;;;13.36;100.00
27294;BME280;14785;52.556;13.430;2023-04-19T09:13:18;101561.25;;;13.29;100.00
27294;BME280;14785;52.556;13.430;2023-04-19T09:15:44;101555.09;;;13.29;100.00
27294;BME280;14785;52.556;13.430;2023-04-19T09:18:11;101570.63;;;13.16;100.00
27294;BME280;14785;52.556;13.430;2023-04-19T09:20:39;101566.25;;;13.24;100.00
27294;BME280;14785;52.556;13.430;2023-04-19T09:23:08;101554.75;;;12.87;100.00
27294;BME280;14785;52.556;13.430;2023-04-19T09:25:36;101560.66;;;12.91;100.00
27294;BME280;14785;52.556;13.430;2023-04-19T09:30:35;101539.03;;;12.84;100.00
27294;BME280;14785;52.556;13.430;2023-04-19T09:33:00;101539.72;;;13.31;100.00
27294;BME280;14785;52.556;13.430;2023-04-19T09:35:45;101531.56;;;13.50;100.00
27294;BME280;14785;52.556;13.430;2023-04-19T09:38:13;101530.34;;;13.09;100.00
27294;BME280;14785;52.556;13.430;2023-04-19T09:40:39;101518.63;;;12.93;100.00
27294;BME280;14785;52.556;13.430;2023-04-19T09:43:05;101527.44;;;13.03;100.00
27294;BME280;14785;52.556;13.430;2023-04-19T09:45:44;101520.19;;;12.86;100.00
27294;BME280;14785;52.556;13.430;2023-04-19T09:48:11;101540.28;;;13.17;100.00
27294;BME280;14785;52.556;13.430;2023-04-19T09:50:49;101533.19;;;13.25;100.00
27294;BME280;14785;52.556;13.430;2023-04-19T09:53:16;101525.16;;;13.43;100.00
27294;BME280;14785;52.556;13.430;2023-04-19T09:55:43;101520.72;;;13.34;100.00
27294;BME280;14785;52.556;13.430;2023-04-19T09:58:11;101526.66;;;13.63;100.00
27294;BME280;14785;52.556;13.430;2023-04-19T10:00:38;101513.34;;;13.71;100.00
27294;BME280;14785;52.556;13.430;2023-04-19T10:03:05;101514.50;;;13.69;100.00
27294;BME280;14785;52.556;13.430;2023-04-19T10:05:33;101517.44;;;13.83;100.00
27294;BME280;14785;52.556;13.430;2023-04-19T10:08:01;101513.25;;;14.06;100.00
27294;BME280;14785;52.556;13.430;2023-04-19T10:10:28;101511.16;;;14.43;100.00
27294;BME280;14785;52.556;13.430;2023-04-19T10:12:56;101510.59;;;14.73;100.00
27294;BME280;14785;52.556;13.430;2023-04-19T10:15:24;101501.84;;;15.13;100.00
27294;BME280;14785;52.556;13.430;2023-04-19T10:17:51;101496.97;;;15.16;100.00
27294;BME280;14785;52.556;13.430;2023-04-19T10:20:33;101489.25;;;15.13;100.00
27294;BME280;14785;52.556;13.430;2023-04-19T10:23:01;101484.88;;;15.04;100.00
27294;BME280;14785;52.556;13.430;2023-04-19T10:25:29;101493.13;;;15.11;100.00
27294;BME280;14785;52.556;13.430;2023-04-19T10:27:55;101495.63;;;15.28;97.36
27294;BME280;14785;52.556;13.430;2023-04-19T10:30:21;101500.72;;;15.64;97.92
27294;BME280;14785;52.556;13.430;2023-04-19T10:32:52;101495.63;;;16.01;98.40
27294;BME280;14785;52.556;13.430;2023-04-19T10:35:32;101493.50;;;15.80;93.33
27294;BME280;14785;52.556;13.430;2023-04-19T10:38:14;101500.31;;;16.15;90.64
27294;BME280;14785;52.556;13.430;2023-04-19T10:40:53;101499.94;;;16.64;83.26
27294;BME280;14785;52.556;13.430;2023-04-19T10:43:28;101490.25;;;16.01;79.11
27294;BME280;14785;52.556;13.430;2023-04-19T10:45:58;101493.25;;;16.14;83.88
27294;BME280;14785;52.556;13.430;2023-04-19T10:56:12;101478.91;;;17.29;78.26
27294;BME280;14785;52.556;13.430;2023-04-19T11:04:58;101479.06;;;17.05;82.39
27294;BME280;14785;52.556;13.430;2023-04-19T11:07:24;101475.44;;;16.98;83.19
27294;BME280;14785;52.556;13.430;2023-04-19T11:09:51;101474.72;;;17.27;84.01
27294;BME280;14785;52.556;13.430;2023-04-19T11:12:18;101471.97;;;17.12;87.85
27294;BME280;14785;52.556;13.430;2023-04-19T11:14:45;101477.41;;;16.35;89.23
27294;BME280;14785;52.556;13.430;2023-04-19T11:20:02;101467.31;;;18.03;75.61
27294;BME280;14785;52.556;13.430;2023-04-19T11:22:36;101463.69;;;18.10;74.37
27294;BME280;14785;52.556;13.430;2023-04-19T11:27:39;101459.66;;;16.95;74.03
27294;BME280;14785;52.556;13.430;2023-04-19T11:30:08;101460.28;;;16.74;75.81
27294;BME280;14785;52.556;13.430;2023-04-19T11:32:34;101456.28;;;16.93;88.17
27294;BME280;14785;52.556;13.430;2023-04-19T11:35:05;101451.53;;;17.03;83.44
27294;BME280;14785;52.556;13.430;2023-04-19T11:37:33;101452.75;;;17.97;87.19
27294;BME280;14785;52.556;13.430;2023-04-19T11:39:58;101444.38;;;17.92;75.75
27294;BME280;14785;52.556;13.430;2023-04-19T11:42:24;101442.84;;;17.75;78.69
27294;BME280;14785;52.556;13.430;2023-04-19T11:44:50;101454.06;;;17.27;74.98
27294;BME280;14785;52.556;13.430;2023-04-19T11:47:16;101446.09;;;16.88;76.25
27294;BME280;14785;52.556;13.430;2023-04-19T11:49:41;101447.69;;;16.75;73.35
27294;BME280;14785;52.556;13.430;2023-04-19T11:52:07;101442.94;;;16.85;83.47
27294;BME280;14785;52.556;13.430;2023-04-19T11:54:32;101441.50;;;16.74;79.70
27294;BME280;14785;52.556;13.430;2023-04-19T11:57:06;101440.41;;;16.61;88.92
27294;BME280;14785;52.556;13.430;2023-04-19T11:59:33;101433.69;;;16.57;78.89
27294;BME280;14785;52.556;13.430;2023-04-19T12:02:09;101420.66;;;16.38;72.90
27294;BME280;14785;52.556;13.430;2023-04-19T12:04:36;101433.22;;;16.53;80.61
27294;BME280;14785;52.556;13.430;2023-04-19T12:07:02;101421.97;;;16.50;80.54
27294;BME280;14785;52.556;13.430;2023-04-19T12:09:28;101423.06;;;16.63;76.68
27294;BME280;14785;52.556;13.430;2023-04-19T12:11:54;101417.91;;;16.54;83.57
27294;BME280;14785;52.556;13.430;2023-04-19T12:14:21;101413.88;;;16.58;80.87
27294;BME280;14785;52.556;13.430;2023-04-19T12:17:22;101404.56;;;16.46;82.96
27294;BME280;14785;52.556;13.430;2023-04-19T12:19:48;101409.75;;;16.39;87.55
27294;BME280;14785;52.556;13.430;2023-04-19T12:22:16;101404.72;;;16.06;81.91
27294;BME280;14785;52.556;13.430;2023-04-19T12:24:43;101393.28;;;16.12;75.55
27294;BME280;14785;52.556;13.430;2023-04-19T12:27:10;101392.78;;;16.08;78.04
27294;BME280;14785;52.556;13.430;2023-04-19T12:29:36;101389.06;;;16.17;80.62
27294;BME280;14785;52.556;13.430;2023-04-19T12:32:02;101386.97;;;15.89;74.69
27294;BME280;14785;52.556;13.430;2023-04-19T12:34:27;101390.34;;;15.83;82.03
27294;BME280;14785;52.556;13.430;2023-04-19T12:36:53;101388.66;;;15.90;81.27
27294;BME280;14785;52.556;13.430;2023-04-19T12:39:19;101387.25;;;16.10;86.59
27294;BME280;14785;52.556;13.430;2023-04-19T12:41:44;101385.69;;;16.15;79.52
27294;BME280;14785;52.556;13.430;2023-04-19T12:44:13;101389.72;;;15.73;78.92
27294;BME280;14785;52.556;13.430;2023-04-19T12:46:39;101385.50;;;16.25;80.77
27294;BME280;14785;52.556;13.430;2023-04-19T12:49:04;101367.34;;;15.96;82.93
27294;BME280;14785;52.556;13.430;2023-04-19T12:51:29;101375.56;;;16.64;78.34
27294;BME280;14785;52.556;13.430;2023-04-19T12:53:56;101356.59;;;17.40;75.75
27294;BME280;14785;52.556;13.430;2023-04-19T12:56:21;101364.13;;;18.31;67.72